createdAt,value
2018-03-26T00:02:07.787Z,6.54
2018-03-26T00:04:36.080Z,6.56
2018-03-26T00:07:05.384Z,6.77
2018-03-26T00:09:33.825Z,6.77
2018-03-26T00:12:02.093Z,6.70
2018-03-26T00:14:30.429Z,6.83
2018-03-26T00:16:58.721Z,6.96
2018-03-26T00:19:27.025Z,7.06
2018-03-26T00:21:55.293Z,6.98
2018-03-26T00:24:23.631Z,6.87
2018-03-26T00:26:51.920Z,6.90
2018-03-26T00:29:20.225Z,6.92
2018-03-26T00:31:48.500Z,6.87
2018-03-26T00:34:16.827Z,6.88
2018-03-26T00:36:55.103Z,6.88
2018-03-26T00:39:23.454Z,6.82
2018-03-26T00:41:51.752Z,6.90
2018-03-26T00:44:20.031Z,6.72
2018-03-26T00:46:48.352Z,6.74
2018-03-26T00:49:16.884Z,6.65
2018-03-26T00:51:45.195Z,6.66
2018-03-26T00:54:13.488Z,6.65
2018-03-26T00:56:41.799Z,6.77
2018-03-26T00:59:10.077Z,6.78
2018-03-26T01:01:38.417Z,6.76
2018-03-26T01:04:06.696Z,6.73
2018-03-26T01:06:35.002Z,6.74
2018-03-26T01:09:03.294Z,6.79
2018-03-26T01:11:31.576Z,6.58
2018-03-26T01:13:59.840Z,6.41
2018-03-26T01:16:28.189Z,6.31
2018-03-26T01:18:56.485Z,6.38
2018-03-26T01:21:24.771Z,6.44
2018-03-26T01:23:53.147Z,6.53
2018-03-26T01:26:21.432Z,6.57
2018-03-26T01:28:49.699Z,6.44
2018-03-26T01:31:18.019Z,6.42
2018-03-26T01:33:46.345Z,6.58
2018-03-26T01:36:14.665Z,6.61
2018-03-26T01:38:43.010Z,6.75
2018-03-26T01:41:11.366Z,6.98
2018-03-26T01:43:39.663Z,7.00
2018-03-26T01:46:07.959Z,6.92
2018-03-26T01:48:36.242Z,6.98
2018-03-26T01:51:04.905Z,6.96
2018-03-26T01:53:33.208Z,7.00
2018-03-26T01:56:01.467Z,7.13
2018-03-26T01:58:29.743Z,7.17
2018-03-26T02:00:58.022Z,6.99
2018-03-26T02:03:26.335Z,7.05
2018-03-26T02:05:54.883Z,7.05
2018-03-26T02:08:23.181Z,6.92
2018-03-26T02:10:51.466Z,6.94
2018-03-26T02:13:19.807Z,7.20
2018-03-26T02:15:48.762Z,7.17
2018-03-26T02:18:17.848Z,7.18
2018-03-26T02:20:46.102Z,6.92
2018-03-26T02:23:14.414Z,6.57
2018-03-26T02:25:42.707Z,6.37
2018-03-26T02:28:10.980Z,6.72
2018-03-26T02:30:39.271Z,6.87
2018-03-26T02:33:07.564Z,7.03
2018-03-26T02:35:35.834Z,7.08
2018-03-26T02:38:04.843Z,7.18
2018-03-26T02:40:33.132Z,7.33
2018-03-26T02:43:01.412Z,7.31
2018-03-26T02:45:29.696Z,7.24
2018-03-26T02:47:57.995Z,7.20
2018-03-26T02:50:26.324Z,7.14
2018-03-26T02:52:54.578Z,7.15
2018-03-26T02:55:22.902Z,7.28
2018-03-26T02:57:51.173Z,7.20
2018-03-26T03:00:19.483Z,7.22
2018-03-26T03:02:47.956Z,7.14
2018-03-26T03:05:16.258Z,6.98
2018-03-26T03:07:44.514Z,6.93
2018-03-26T03:10:12.821Z,7.08
2018-03-26T03:12:41.128Z,7.21
2018-03-26T03:15:09.522Z,7.27
2018-03-26T03:17:37.815Z,7.39
2018-03-26T03:20:06.096Z,7.45
2018-03-26T03:22:34.437Z,7.47
2018-03-26T03:25:03.303Z,7.62
2018-03-26T03:27:31.560Z,7.50
2018-03-26T03:29:59.853Z,7.35
2018-03-26T03:32:28.156Z,7.35
2018-03-26T03:34:56.436Z,7.34
2018-03-26T03:37:24.727Z,7.31
2018-03-26T03:39:53.011Z,7.31
2018-03-26T03:42:21.292Z,7.37
2018-03-26T03:44:49.615Z,7.37
2018-03-26T03:47:17.932Z,7.34
2018-03-26T03:49:46.197Z,7.21
2018-03-26T03:52:14.490Z,7.15
2018-03-26T03:54:42.791Z,7.18
2018-03-26T03:57:11.116Z,7.24
2018-03-26T03:59:39.445Z,7.26
2018-03-26T04:02:07.767Z,7.26
2018-03-26T04:04:36.077Z,7.31
2018-03-26T04:07:04.364Z,7.22
2018-03-26T04:09:32.684Z,7.30
2018-03-26T04:12:01.032Z,7.34
2018-03-26T04:14:29.298Z,7.36
2018-03-26T04:16:57.651Z,7.28
2018-03-26T04:19:25.944Z,7.16
2018-03-26T04:21:54.266Z,7.21
2018-03-26T04:24:23.132Z,7.18
2018-03-26T04:26:51.425Z,7.06
2018-03-26T04:29:19.701Z,7.06
2018-03-26T04:31:48.002Z,7.09
2018-03-26T04:34:16.271Z,7.13
2018-03-26T04:36:44.591Z,7.19
2018-03-26T04:39:12.874Z,7.19
2018-03-26T04:41:41.249Z,7.18
2018-03-26T04:44:09.512Z,7.30
2018-03-26T04:46:37.806Z,7.35
2018-03-26T04:49:06.115Z,7.34
2018-03-26T04:51:34.366Z,7.29
2018-03-26T04:54:02.683Z,7.28
2018-03-26T04:56:30.987Z,7.33
2018-03-26T04:58:59.274Z,7.34
2018-03-26T05:01:27.540Z,7.35
2018-03-26T05:03:55.874Z,7.39
2018-03-26T05:06:24.150Z,7.30
2018-03-26T05:08:52.544Z,7.34
2018-03-26T05:11:20.800Z,7.33
2018-03-26T05:13:49.127Z,7.31
2018-03-26T05:16:17.448Z,7.31
2018-03-26T05:18:45.744Z,7.35
2018-03-26T05:21:14.032Z,7.26
2018-03-26T05:23:43.317Z,6.40
2018-03-26T05:26:11.755Z,7.23
2018-03-26T05:28:40.077Z,7.33
2018-03-26T05:31:08.406Z,7.33
2018-03-26T05:33:36.686Z,7.31
2018-03-26T05:36:05.076Z,6.63
2018-03-26T05:38:33.365Z,7.41
2018-03-26T05:41:01.678Z,7.41
2018-03-26T05:43:29.981Z,7.39
2018-03-26T05:45:58.279Z,7.39
2018-03-26T05:48:26.587Z,7.33
2018-03-26T05:50:54.868Z,7.41
2018-03-26T05:53:23.145Z,7.38
2018-03-26T05:55:51.488Z,7.38
2018-03-26T05:58:19.744Z,7.50
2018-03-26T06:00:48.106Z,7.56
2018-03-26T06:03:16.391Z,7.60
2018-03-26T06:05:44.721Z,7.52
2018-03-26T06:08:13.014Z,7.58
2018-03-26T06:10:41.314Z,7.52
2018-03-26T06:13:09.622Z,7.57
2018-03-26T06:15:38.934Z,7.67
2018-03-26T06:18:07.288Z,7.60
2018-03-26T06:20:35.655Z,7.77
2018-03-26T06:23:04.952Z,7.78
2018-03-26T06:25:34.857Z,7.82
2018-03-26T06:28:03.142Z,7.86
2018-03-26T06:30:31.526Z,7.86
2018-03-26T06:32:59.779Z,7.93
2018-03-26T06:35:28.081Z,7.94
2018-03-26T06:40:57.986Z,8.01
2018-03-26T06:43:26.242Z,8.01
2018-03-26T06:45:54.644Z,8.02
2018-03-26T06:48:22.938Z,7.97
2018-03-26T06:50:51.332Z,7.99
2018-03-26T06:53:19.788Z,7.92
2018-03-26T06:55:48.087Z,7.89
2018-03-26T06:58:16.403Z,7.88
2018-03-26T07:00:44.712Z,7.98
2018-03-26T07:03:13.089Z,8.05
2018-03-26T07:05:41.397Z,8.00
2018-03-26T07:11:05.603Z,7.95
2018-03-26T07:13:34.787Z,8.05
2018-03-26T07:16:03.092Z,8.05
2018-03-26T07:18:31.449Z,8.08
2018-03-26T07:20:59.920Z,8.16
2018-03-26T07:23:28.240Z,8.15
2018-03-26T07:25:59.939Z,8.22
2018-03-26T07:28:29.235Z,8.28
2018-03-26T07:30:57.610Z,8.31
2018-03-26T07:33:25.978Z,8.26
2018-03-26T07:35:54.280Z,8.32
2018-03-26T07:38:22.665Z,8.49
2018-03-26T07:40:50.990Z,8.21
2018-03-26T07:43:19.447Z,8.05
2018-03-26T07:45:47.821Z,8.15
2018-03-26T07:48:16.205Z,8.32
2018-03-26T07:50:44.591Z,8.58
2018-03-26T07:53:12.911Z,8.63
2018-03-26T07:55:41.295Z,8.58
2018-03-26T07:58:09.597Z,8.64
2018-03-26T08:00:37.945Z,8.69
2018-03-26T08:03:06.485Z,8.79
2018-03-26T08:05:34.790Z,8.89
2018-03-26T08:08:03.504Z,8.94
2018-03-26T08:10:34.507Z,8.92
2018-03-26T08:13:03.132Z,8.74
2018-03-26T08:15:31.514Z,8.99
2018-03-26T08:17:59.875Z,9.06
2018-03-26T08:20:28.156Z,9.13
2018-03-26T08:22:56.498Z,9.14
2018-03-26T08:25:24.815Z,9.19
2018-03-26T08:27:53.960Z,9.40
2018-03-26T08:30:22.263Z,9.55
2018-03-26T08:32:50.551Z,9.73
2018-03-26T08:35:18.841Z,9.87
2018-03-26T08:37:47.192Z,9.97
2018-03-26T08:40:15.564Z,10.07
2018-03-26T08:42:43.873Z,10.11
2018-03-26T08:45:12.194Z,10.15
2018-03-26T08:47:40.508Z,10.19
2018-03-26T08:50:09.750Z,10.23
2018-03-26T08:52:37.974Z,10.33
2018-03-26T08:55:06.424Z,10.36
2018-03-26T08:57:34.745Z,10.37
2018-03-26T09:00:03.117Z,10.54
2018-03-26T09:02:31.539Z,10.58
2018-03-26T09:05:00.049Z,10.69
2018-03-26T09:07:28.472Z,10.62
2018-03-26T09:09:56.862Z,10.63
2018-03-26T09:12:25.152Z,10.66
2018-03-26T09:14:53.428Z,10.69
2018-03-26T09:17:21.837Z,10.70
2018-03-26T09:19:50.152Z,10.84
2018-03-26T09:22:18.668Z,10.93
2018-03-26T09:24:47.043Z,11.05
2018-03-26T09:27:16.647Z,11.20
2018-03-26T09:29:44.984Z,11.33
2018-03-26T09:32:13.457Z,11.34
2018-03-26T09:34:41.839Z,11.05
2018-03-26T09:37:10.188Z,10.98
2018-03-26T09:39:38.508Z,10.93
2018-03-26T09:42:07.250Z,10.96
2018-03-26T09:44:35.619Z,11.15
2018-03-26T09:47:03.936Z,11.24
2018-03-26T09:49:32.961Z,11.28
2018-03-26T09:52:01.275Z,11.23
2018-03-26T09:54:29.603Z,11.52
2018-03-26T09:56:57.935Z,11.59
2018-03-26T09:59:26.760Z,11.69
2018-03-26T10:01:57.962Z,12.08
2018-03-26T10:04:26.308Z,12.39
2018-03-26T10:06:54.613Z,12.37
2018-03-26T10:09:23.033Z,12.50
2018-03-26T10:11:51.427Z,12.69
2018-03-26T10:14:19.783Z,12.25
2018-03-26T10:16:48.089Z,12.05
2018-03-26T10:19:16.636Z,12.18
2018-03-26T10:21:44.941Z,12.22
2018-03-26T10:24:13.290Z,12.20
2018-03-26T10:26:41.698Z,11.97
2018-03-26T10:29:10.053Z,12.08
2018-03-26T10:31:38.426Z,12.23
2018-03-26T10:34:06.804Z,11.82
2018-03-26T10:36:35.105Z,11.80
2018-03-26T10:39:03.653Z,11.82
2018-03-26T10:41:32.031Z,11.86
2018-03-26T10:44:00.408Z,11.81
2018-03-26T10:46:28.726Z,11.78
2018-03-26T10:48:57.081Z,11.79
2018-03-26T10:51:25.464Z,11.98
2018-03-26T10:56:46.830Z,12.36
2018-03-26T10:59:16.440Z,12.26
2018-03-26T11:01:44.772Z,12.08
2018-03-26T11:04:14.436Z,12.02
2018-03-26T11:06:42.803Z,11.87
2018-03-26T11:09:11.226Z,11.81
2018-03-26T11:11:39.675Z,12.23
2018-03-26T11:14:08.379Z,12.19
2018-03-26T11:16:36.673Z,12.22
2018-03-26T11:19:05.609Z,12.28
2018-03-26T11:21:33.920Z,12.22
2018-03-26T11:24:02.245Z,12.17
2018-03-26T11:26:30.614Z,12.61
2018-03-26T11:28:58.923Z,13.00
2018-03-26T11:31:27.247Z,13.20
2018-03-26T11:33:55.714Z,13.20
2018-03-26T11:36:24.120Z,13.18
2018-03-26T11:38:55.488Z,13.46
2018-03-26T11:41:25.571Z,13.20
2018-03-26T11:43:58.594Z,13.08
2018-03-26T11:46:26.973Z,13.43
2018-03-26T11:48:55.493Z,12.80
2018-03-26T11:51:23.887Z,12.69
2018-03-26T11:53:52.173Z,12.53
2018-03-26T11:56:20.525Z,12.68
2018-03-26T11:58:48.852Z,12.56
2018-03-26T12:01:17.164Z,12.96
2018-03-26T12:03:45.684Z,12.66
2018-03-26T12:06:14.059Z,12.76
2018-03-26T12:08:42.460Z,13.32
2018-03-26T12:11:11.553Z,13.60
2018-03-26T12:13:39.885Z,13.85
2018-03-26T12:16:08.187Z,14.18
2018-03-26T12:18:36.538Z,14.34
2018-03-26T12:21:04.888Z,14.50
2018-03-26T12:23:45.048Z,14.38
2018-03-26T12:26:13.515Z,14.04
2018-03-26T12:28:53.602Z,13.99
2018-03-26T12:31:21.950Z,14.32
2018-03-26T12:36:53.810Z,14.60
2018-03-26T12:39:22.793Z,14.66
2018-03-26T12:41:51.095Z,14.46
2018-03-26T12:44:31.328Z,13.83
2018-03-26T12:46:59.682Z,13.94
2018-03-26T12:49:28.034Z,14.17
2018-03-26T12:52:07.997Z,14.25
2018-03-26T12:54:36.319Z,14.61
2018-03-26T12:57:17.076Z,14.99
2018-03-26T12:59:45.455Z,15.44
2018-03-26T13:02:29.683Z,15.44
2018-03-26T13:04:58.112Z,15.49
2018-03-26T13:07:26.463Z,15.44
2018-03-26T13:09:54.800Z,15.13
2018-03-26T13:12:23.179Z,14.94
2018-03-26T13:14:51.531Z,14.83
2018-03-26T13:17:20.594Z,14.53
2018-03-26T13:19:48.978Z,13.91
2018-03-26T13:22:17.305Z,13.89
2018-03-26T13:24:45.664Z,14.03
2018-03-26T13:27:14.017Z,14.35
2018-03-26T13:29:42.372Z,14.51
2018-03-26T13:32:10.709Z,14.84
2018-03-26T13:34:39.120Z,14.73
2018-03-26T13:37:07.480Z,14.89
2018-03-26T13:39:35.850Z,14.63
2018-03-26T13:42:04.190Z,13.85
2018-03-26T13:44:33.368Z,14.39
2018-03-26T13:47:02.418Z,14.52
2018-03-26T13:49:30.994Z,14.50
2018-03-26T13:51:59.324Z,14.54
2018-03-26T13:54:27.827Z,14.21
2018-03-26T13:56:56.129Z,14.29
2018-03-26T13:59:24.536Z,14.37
2018-03-26T14:01:53.351Z,14.46
2018-03-26T14:04:21.706Z,14.53
2018-03-26T14:06:50.152Z,14.76
2018-03-26T14:09:30.205Z,14.56
2018-03-26T14:12:10.597Z,14.48
2018-03-26T14:17:49.680Z,14.91
2018-03-26T14:20:18.220Z,14.99
2018-03-26T14:22:46.556Z,15.01
2018-03-26T14:25:14.876Z,14.54
2018-03-26T14:27:43.173Z,14.65
2018-03-26T14:30:11.529Z,14.84
2018-03-26T14:32:40.733Z,14.58
2018-03-26T14:38:11.239Z,13.22
2018-03-26T14:40:39.611Z,12.59
2018-03-26T14:43:08.001Z,12.60
2018-03-26T14:45:36.849Z,12.31
2018-03-26T14:48:05.226Z,12.40
2018-03-26T14:50:33.596Z,12.73
2018-03-26T14:53:01.999Z,12.94
2018-03-26T14:55:30.861Z,13.13
2018-03-26T14:57:59.232Z,13.25
2018-03-26T15:00:27.531Z,13.36
2018-03-26T15:02:56.798Z,13.40
2018-03-26T15:05:25.134Z,13.49
2018-03-26T15:07:53.803Z,13.54
2018-03-26T15:10:22.817Z,13.62
2018-03-26T15:12:51.751Z,13.54
2018-03-26T15:15:20.480Z,13.43
2018-03-26T15:17:48.823Z,13.31
2018-03-26T15:20:17.251Z,13.28
2018-03-26T15:22:45.637Z,13.39
2018-03-26T15:25:14.055Z,13.27
2018-03-26T15:27:42.432Z,13.11
2018-03-26T15:30:11.110Z,13.01
2018-03-26T15:32:39.442Z,12.66
2018-03-26T15:35:07.774Z,13.15
2018-03-26T15:37:36.162Z,13.13
2018-03-26T15:40:05.044Z,13.14
2018-03-26T15:42:33.417Z,13.16
2018-03-26T15:45:01.790Z,13.34
2018-03-26T15:47:30.179Z,13.33
2018-03-26T15:49:58.502Z,13.28
2018-03-26T15:52:26.856Z,13.19
2018-03-26T15:54:55.416Z,13.22
2018-03-26T15:57:23.724Z,13.16
2018-03-26T15:59:52.082Z,13.15
2018-03-26T16:02:21.580Z,13.14
2018-03-26T16:04:49.989Z,13.17
2018-03-26T16:07:18.233Z,13.12
2018-03-26T16:09:46.560Z,13.11
2018-03-26T16:12:14.856Z,13.02
2018-03-26T16:14:44.008Z,13.09
2018-03-26T16:17:12.390Z,14.53
2018-03-26T16:19:40.835Z,15.45
2018-03-26T16:22:09.133Z,15.91
2018-03-26T16:24:37.475Z,16.50
2018-03-26T16:27:05.919Z,16.24
2018-03-26T16:29:34.392Z,15.53
2018-03-26T16:32:03.477Z,14.79
2018-03-26T16:34:32.516Z,13.98
2018-03-26T16:37:01.140Z,13.66
2018-03-26T16:39:30.675Z,13.64
2018-03-26T16:42:11.019Z,13.36
2018-03-26T16:44:39.393Z,13.32
2018-03-26T16:47:07.733Z,12.94
2018-03-26T16:49:36.144Z,12.62
2018-03-26T16:52:04.524Z,12.71
2018-03-26T16:54:32.968Z,12.65
2018-03-26T16:57:01.320Z,12.65
2018-03-26T16:59:29.586Z,12.68
2018-03-26T17:01:57.946Z,12.64
2018-03-26T17:04:26.262Z,12.55
2018-03-26T17:06:54.677Z,12.61
2018-03-26T17:09:22.977Z,12.54
2018-03-26T17:11:51.542Z,12.39
2018-03-26T17:14:20.554Z,12.30
2018-03-26T17:16:48.896Z,12.20
2018-03-26T17:19:17.973Z,12.11
2018-03-26T17:21:46.264Z,12.16
2018-03-26T17:24:14.569Z,12.22
2018-03-26T17:26:42.899Z,12.12
2018-03-26T17:29:11.211Z,12.12
2018-03-26T17:31:39.525Z,12.17
2018-03-26T17:34:08.209Z,12.06
2018-03-26T17:36:36.596Z,11.97
2018-03-26T17:39:05.920Z,11.65
2018-03-26T17:41:37.452Z,11.86
2018-03-26T17:44:06.869Z,11.85
2018-03-26T17:46:35.178Z,11.84
2018-03-26T17:49:03.748Z,11.93
2018-03-26T17:51:32.927Z,11.93
2018-03-26T17:54:01.266Z,11.88
2018-03-26T17:56:29.597Z,11.90
2018-03-26T17:58:57.950Z,11.88
2018-03-26T18:01:26.256Z,11.87
2018-03-26T18:03:54.586Z,11.89
2018-03-26T18:06:22.887Z,11.96
2018-03-26T18:08:51.245Z,11.75
2018-03-26T18:11:19.573Z,11.67
2018-03-26T18:13:47.943Z,11.60
2018-03-26T18:16:16.232Z,11.65
2018-03-26T18:18:44.555Z,11.69
2018-03-26T18:21:12.895Z,11.75
2018-03-26T18:23:42.005Z,11.66
2018-03-26T18:26:10.328Z,11.65
2018-03-26T18:28:38.635Z,11.60
2018-03-26T18:31:06.901Z,11.41
2018-03-26T18:33:35.282Z,11.37
2018-03-26T18:36:03.849Z,11.35
2018-03-26T18:38:32.239Z,11.33
2018-03-26T18:41:00.577Z,11.32
2018-03-26T18:43:28.936Z,11.31
2018-03-26T18:45:57.235Z,11.35
2018-03-26T18:48:25.614Z,11.33
2018-03-26T18:50:53.968Z,11.40
2018-03-26T18:53:22.327Z,11.43
2018-03-26T18:55:50.650Z,11.33
2018-03-26T18:58:18.947Z,11.31
2018-03-26T19:00:47.336Z,11.29
2018-03-26T19:03:15.670Z,11.39
2018-03-26T19:05:43.977Z,11.34
2018-03-26T19:08:12.249Z,11.37
2018-03-26T19:10:40.600Z,11.43
2018-03-26T19:13:08.890Z,11.57
2018-03-26T19:15:37.301Z,11.69
2018-03-26T19:18:05.654Z,11.61
2018-03-26T19:20:34.074Z,11.52
2018-03-26T19:23:02.438Z,11.40
2018-03-26T19:25:30.732Z,11.31
2018-03-26T19:27:59.034Z,11.30
2018-03-26T19:30:27.370Z,11.24
2018-03-26T19:32:55.962Z,11.18
2018-03-26T19:35:24.312Z,11.13
2018-03-26T19:37:52.679Z,11.15
2018-03-26T19:40:20.996Z,11.17
2018-03-26T19:42:50.102Z,11.16
2018-03-26T19:45:19.392Z,11.21
2018-03-26T19:47:47.725Z,11.17
2018-03-26T19:50:16.323Z,11.16
2018-03-26T19:52:44.894Z,11.25
2018-03-26T19:55:13.159Z,11.28
2018-03-26T19:57:41.503Z,11.28
2018-03-26T20:00:10.326Z,10.96
2018-03-26T20:02:38.666Z,11.17
2018-03-26T20:05:07.070Z,11.12
2018-03-26T20:07:35.396Z,11.03
2018-03-26T20:10:04.874Z,10.56
2018-03-26T20:12:33.171Z,10.79
2018-03-26T20:15:01.468Z,10.70
2018-03-26T20:17:29.799Z,10.57
2018-03-26T20:19:58.109Z,10.44
2018-03-26T20:22:26.442Z,10.47
2018-03-26T20:24:54.729Z,10.52
2018-03-26T20:27:23.136Z,10.46
2018-03-26T20:29:51.417Z,10.46
2018-03-26T20:32:19.798Z,10.42
2018-03-26T20:34:48.420Z,10.42
2018-03-26T20:37:16.761Z,10.38
2018-03-26T20:39:45.020Z,10.28
2018-03-26T20:42:13.341Z,10.24
2018-03-26T20:44:41.755Z,10.22
2018-03-26T20:47:10.093Z,10.16
2018-03-26T20:49:38.416Z,10.20
2018-03-26T20:52:06.704Z,10.20
2018-03-26T20:54:35.336Z,10.20
2018-03-26T20:57:03.645Z,10.15
2018-03-26T20:59:31.944Z,10.08
2018-03-26T21:02:00.452Z,10.05
2018-03-26T21:04:28.774Z,9.93
2018-03-26T21:06:57.067Z,9.92
2018-03-26T21:09:25.434Z,9.90
2018-03-26T21:11:53.776Z,9.86
2018-03-26T21:14:22.193Z,9.85
2018-03-26T21:16:50.468Z,9.73
2018-03-26T21:19:18.764Z,9.58
2018-03-26T21:21:47.143Z,9.51
2018-03-26T21:24:15.471Z,9.17
2018-03-26T21:26:43.806Z,9.18
2018-03-26T21:29:12.164Z,9.25
2018-03-26T21:31:40.449Z,9.41
2018-03-26T21:34:09.488Z,9.22
2018-03-26T21:36:37.792Z,9.26
2018-03-26T21:39:06.197Z,9.16
2018-03-26T21:41:34.486Z,8.93
2018-03-26T21:44:02.751Z,8.92
2018-03-26T21:46:31.204Z,8.92
2018-03-26T21:48:59.546Z,8.90
2018-03-26T21:51:27.867Z,8.85
2018-03-26T21:53:56.157Z,8.89
2018-03-26T21:56:24.532Z,8.70
2018-03-26T21:58:52.857Z,8.59
2018-03-26T22:01:21.210Z,8.59
2018-03-26T22:03:49.521Z,8.60
2018-03-26T22:06:17.892Z,8.46
2018-03-26T22:08:46.230Z,8.36
2018-03-26T22:11:15.362Z,8.33
2018-03-26T22:13:43.642Z,8.31
2018-03-26T22:16:11.994Z,8.23
2018-03-26T22:18:45.319Z,8.21
2018-03-26T22:21:13.636Z,8.24
2018-03-26T22:23:41.917Z,8.07
2018-03-26T22:26:10.244Z,7.99
2018-03-26T22:28:38.561Z,7.88
2018-03-26T22:31:06.880Z,7.80
2018-03-26T22:33:35.185Z,7.83
2018-03-26T22:36:04.196Z,7.82
2018-03-26T22:38:32.516Z,7.72
2018-03-26T22:41:00.793Z,7.67
2018-03-26T22:43:29.186Z,7.73
2018-03-26T22:45:57.495Z,7.78
2018-03-26T22:48:25.780Z,7.55
2018-03-26T22:50:54.127Z,7.57
2018-03-26T22:53:22.442Z,7.61
2018-03-26T22:55:50.713Z,7.64
2018-03-26T22:58:19.091Z,7.66
2018-03-26T23:00:47.379Z,7.67
2018-03-26T23:03:15.728Z,7.66
2018-03-26T23:05:44.024Z,7.69
2018-03-26T23:08:12.341Z,7.60
2018-03-26T23:10:40.652Z,7.56
2018-03-26T23:13:08.952Z,7.49
2018-03-26T23:15:37.221Z,7.42
2018-03-26T23:18:05.597Z,7.46
2018-03-26T23:20:33.884Z,7.37
2018-03-26T23:23:02.244Z,7.31
2018-03-26T23:25:30.527Z,7.24
2018-03-26T23:27:58.863Z,7.21
2018-03-26T23:30:27.715Z,7.16
2018-03-26T23:32:56.069Z,7.06
2018-03-26T23:35:24.349Z,6.85
2018-03-26T23:37:52.663Z,6.77
2018-03-26T23:40:20.987Z,6.86
2018-03-26T23:42:49.363Z,6.83
2018-03-26T23:45:17.725Z,6.97
2018-03-26T23:47:46.021Z,7.09
2018-03-26T23:50:14.332Z,7.13
2018-03-26T23:52:42.617Z,7.15
2018-03-26T23:55:10.927Z,7.03
2018-03-26T23:57:39.252Z,7.06
